sensor_id;sensor_type;location;lat;lon;timestamp;pressure;altitude;pressure_sealevel;temperature;humidity
15529;BME280;7866;52.280;9.500;2023-06-01T00:01:26;100984.69;;;12.30;74.01
15529;BME280;7866;52.280;9.500;2023-06-01T00:06:27;100985.53;;;12.39;74.87
15529;BME280;7866;52.280;9.500;2023-06-01T00:11:32;100982.22;;;12.77;73.62
15529;BME280;7866;52.280;9.500;2023-06-01T00:16:34;100990.34;;;12.19;74.70
15529;BME280;7866;52.280;9.500;2023-06-01T00:21:36;100984.28;;;12.08;76.36
15529;BME280;7866;52.280;9.500;2023-06-01T00:26:39;100973.09;;;12.21;75.56
15529;BME280;7866;52.280;9.500;2023-06-01T00:31:41;100972.81;;;12.73;74.60
15529;BME280;7866;52.280;9.500;2023-06-01T00:36:42;100972.63;;;12.58;73.67
15529;BME280;7866;52.280;9.500;2023-06-01T00:41:45;100965.41;;;12.59;73.68
15529;BME280;7866;52.280;9.500;2023-06-01T00:46:47;100961.56;;;12.45;73.33
15529;BME280;7866;52.280;9.500;2023-06-01T00:51:49;100958.88;;;12.53;73.87
15529;BME280;7866;52.280;9.500;2023-06-01T00:56:52;100961.34;;;12.30;74.36
15529;BME280;7866;52.280;9.500;2023-06-01T01:01:53;100962.91;;;12.49;75.25
15529;BME280;7866;52.280;9.500;2023-06-01T01:07:02;100943.75;;;12.77;73.35
15529;BME280;7866;52.280;9.500;2023-06-01T01:12:14;100950.06;;;12.19;74.33
15529;BME280;7866;52.280;9.500;2023-06-01T01:17:25;100946.94;;;12.89;74.63
15529;BME280;7866;52.280;9.500;2023-06-01T01:22:43;100956.00;;;12.63;74.06
15529;BME280;7866;52.280;9.500;2023-06-01T01:28:10;100946.09;;;12.72;74.08
15529;BME280;7866;52.280;9.500;2023-06-01T01:33:15;100950.47;;;12.73;73.07
15529;BME280;7866;52.280;9.500;2023-06-01T01:38:18;100942.41;;;12.89;73.95
15529;BME280;7866;52.280;9.500;2023-06-01T01:43:20;100945.94;;;12.73;73.91
15529;BME280;7866;52.280;9.500;2023-06-01T01:48:28;100941.72;;;12.63;72.86
15529;BME280;7866;52.280;9.500;2023-06-01T01:53:34;100935.84;;;12.59;73.39
15529;BME280;7866;52.280;9.500;2023-06-01T01:58:37;100939.03;;;12.46;75.18
15529;BME280;7866;52.280;9.500;2023-06-01T02:03:41;100923.06;;;12.94;73.11
15529;BME280;7866;52.280;9.500;2023-06-01T02:08:42;100927.47;;;12.54;74.57
15529;BME280;7866;52.280;9.500;2023-06-01T02:13:44;100924.94;;;12.85;73.81
15529;BME280;7866;52.280;9.500;2023-06-01T02:18:47;100919.06;;;12.81;73.07
15529;BME280;7866;52.280;9.500;2023-06-01T02:23:49;100916.88;;;12.69;73.31
15529;BME280;7866;52.280;9.500;2023-06-01T02:28:50;100920.25;;;12.46;74.05
15529;BME280;7866;52.280;9.500;2023-06-01T02:33:53;100923.75;;;12.71;74.75
15529;BME280;7866;52.280;9.500;2023-06-01T02:38:55;100926.13;;;12.50;74.86
15529;BME280;7866;52.280;9.500;2023-06-01T02:43:57;100924.91;;;12.52;74.00
15529;BME280;7866;52.280;9.500;2023-06-01T02:49:00;100922.41;;;12.67;74.15
15529;BME280;7866;52.280;9.500;2023-06-01T02:54:01;100922.25;;;12.69;74.29
15529;BME280;7866;52.280;9.500;2023-06-01T02:59:03;100916.19;;;12.83;74.45
15529;BME280;7866;52.280;9.500;2023-06-01T03:04:06;100923.59;;;12.56;73.51
15529;BME280;7866;52.280;9.500;2023-06-01T03:09:08;100924.19;;;11.93;75.88
15529;BME280;7866;52.280;9.500;2023-06-01T03:14:13;100914.84;;;12.14;75.78
15529;BME280;7866;52.280;9.500;2023-06-01T03:19:16;100913.19;;;12.29;75.16
15529;BME280;7866;52.280;9.500;2023-06-01T03:24:18;100905.94;;;12.21;75.05
15529;BME280;7866;52.280;9.500;2023-06-01T03:29:19;100908.31;;;12.49;74.43
15529;BME280;7866;52.280;9.500;2023-06-01T03:34:23;100908.63;;;12.78;73.42
15529;BME280;7866;52.280;9.500;2023-06-01T03:39:24;100904.09;;;12.71;73.64
15529;BME280;7866;52.280;9.500;2023-06-01T03:44:26;100899.75;;;12.62;74.20
15529;BME280;7866;52.280;9.500;2023-06-01T03:49:29;100894.03;;;12.40;73.08
15529;BME280;7866;52.280;9.500;2023-06-01T03:54:31;100898.06;;;12.61;74.15
15529;BME280;7866;52.280;9.500;2023-06-01T03:59:32;100894.72;;;12.42;73.57
15529;BME280;7866;52.280;9.500;2023-06-01T04:04:35;100895.56;;;12.43;74.44
15529;BME280;7866;52.280;9.500;2023-06-01T04:09:37;100897.22;;;12.36;74.31
15529;BME280;7866;52.280;9.500;2023-06-01T04:14:39;100905.59;;;12.24;75.67
15529;BME280;7866;52.280;9.500;2023-06-01T04:19:42;100898.88;;;12.20;75.17
15529;BME280;7866;52.280;9.500;2023-06-01T04:24:48;100891.69;;;12.21;75.67
15529;BME280;7866;52.280;9.500;2023-06-01T04:29:49;100897.41;;;12.26;75.56
15529;BME280;7866;52.280;9.500;2023-06-01T04:34:53;100898.75;;;12.30;75.46
15529;BME280;7866;52.280;9.500;2023-06-01T04:39:57;100898.22;;;12.59;74.77
15529;BME280;7866;52.280;9.500;2023-06-01T04:44:58;100917.03;;;12.75;73.50
15529;BME280;7866;52.280;9.500;2023-06-01T04:50:02;100916.00;;;12.76;73.33
15529;BME280;7866;52.280;9.500;2023-06-01T04:55:04;100901.09;;;12.57;74.16
15529;BME280;7866;52.280;9.500;2023-06-01T05:00:08;100891.53;;;12.47;74.88
15529;BME280;7866;52.280;9.500;2023-06-01T05:05:13;100894.38;;;12.45;75.26
15529;BME280;7866;52.280;9.500;2023-06-01T05:10:15;100886.16;;;12.39;76.59
15529;BME280;7866;52.280;9.500;2023-06-01T05:15:17;100885.81;;;12.42;76.65
15529;BME280;7866;52.280;9.500;2023-06-01T05:20:20;100884.63;;;12.61;75.89
15529;BME280;7866;52.280;9.500;2023-06-01T05:25:22;100892.69;;;12.77;75.96
15529;BME280;7866;52.280;9.500;2023-06-01T05:30:23;100894.19;;;12.63;76.27
15529;BME280;7866;52.280;9.500;2023-06-01T05:35:27;100886.31;;;12.37;77.11
15529;BME280;7866;52.280;9.500;2023-06-01T05:40:29;100878.41;;;12.11;78.66
15529;BME280;7866;52.280;9.500;2023-06-01T05:45:30;100883.97;;;12.26;78.05
15529;BME280;7866;52.280;9.500;2023-06-01T05:50:33;100885.97;;;12.48;78.53
15529;BME280;7866;52.280;9.500;2023-06-01T05:55:35;100888.84;;;12.30;77.75
15529;BME280;7866;52.280;9.500;2023-06-01T06:00:37;100891.34;;;12.32;77.52
15529;BME280;7866;52.280;9.500;2023-06-01T06:05:40;100890.69;;;12.46;77.51
15529;BME280;7866;52.280;9.500;2023-06-01T06:10:41;100885.28;;;12.79;75.85
15529;BME280;7866;52.280;9.500;2023-06-01T06:15:43;100884.97;;;12.66;77.57
15529;BME280;7866;52.280;9.500;2023-06-01T06:20:46;100876.50;;;13.01;76.55
15529;BME280;7866;52.280;9.500;2023-06-01T06:25:48;100874.81;;;13.00;76.09
15529;BME280;7866;52.280;9.500;2023-06-01T06:30:49;100879.25;;;12.85;76.10
15529;BME280;7866;52.280;9.500;2023-06-01T06:35:52;100879.84;;;13.03;75.84
15529;BME280;7866;52.280;9.500;2023-06-01T06:40:54;100884.28;;;12.64;77.63
15529;BME280;7866;52.280;9.500;2023-06-01T06:45:57;100885.44;;;12.86;76.85
15529;BME280;7866;52.280;9.500;2023-06-01T06:51:00;100895.03;;;12.64;77.66
15529;BME280;7866;52.280;9.500;2023-06-01T06:56:02;100896.31;;;13.00;76.79
15529;BME280;7866;52.280;9.500;2023-06-01T07:01:03;100897.03;;;12.94;77.53
15529;BME280;7866;52.280;9.500;2023-06-01T07:06:07;100892.97;;;12.98;76.67
15529;BME280;7866;52.280;9.500;2023-06-01T07:11:08;100903.31;;;13.42;76.06
15529;BME280;7866;52.280;9.500;2023-06-01T07:16:10;100899.00;;;13.17;76.71
15529;BME280;7866;52.280;9.500;2023-06-01T07:21:13;100894.81;;;13.06;76.61
15529;BME280;7866;52.280;9.500;2023-06-01T07:26:15;100890.28;;;12.98;77.63
15529;BME280;7866;52.280;9.500;2023-06-01T07:31:16;100891.09;;;13.23;76.34
15529;BME280;7866;52.280;9.500;2023-06-01T07:36:19;100893.25;;;13.28;76.67
15529;BME280;7866;52.280;9.500;2023-06-01T07:41:23;100886.97;;;13.44;75.69
15529;BME280;7866;52.280;9.500;2023-06-01T07:46:25;100903.69;;;13.31;76.54
15529;BME280;7866;52.280;9.500;2023-06-01T07:51:28;100907.06;;;13.33;77.54
15529;BME280;7866;52.280;9.500;2023-06-01T07:56:31;100901.50;;;13.74;76.45
15529;BME280;7866;52.280;9.500;2023-06-01T08:01:33;100901.09;;;13.85;75.91
15529;BME280;7866;52.280;9.500;2023-06-01T08:06:36;100901.53;;;13.66;75.32
15529;BME280;7866;52.280;9.500;2023-06-01T08:11:38;100909.22;;;13.38;76.97
15529;BME280;7866;52.280;9.500;2023-06-01T08:16:40;100895.63;;;13.23;77.09
15529;BME280;7866;52.280;9.500;2023-06-01T08:21:43;100895.47;;;13.64;76.00
15529;BME280;7866;52.280;9.500;2023-06-01T08:26:45;100902.38;;;13.66;76.74
15529;BME280;7866;52.280;9.500;2023-06-01T08:31:47;100904.69;;;13.77;75.52
15529;BME280;7866;52.280;9.500;2023-06-01T08:36:50;100909.22;;;13.77;75.49
15529;BME280;7866;52.280;9.500;2023-06-01T08:42:04;100902.91;;;13.93;75.46
15529;BME280;7866;52.280;9.500;2023-06-01T08:47:08;100894.88;;;14.08;74.50
15529;BME280;7866;52.280;9.500;2023-06-01T08:52:13;100887.53;;;14.01;74.90
15529;BME280;7866;52.280;9.500;2023-06-01T08:57:15;100895.13;;;13.98;75.27
15529;BME280;7866;52.280;9.500;2023-06-01T09:02:17;100900.88;;;13.95;75.28
15529;BME280;7866;52.280;9.500;2023-06-01T09:07:20;100885.59;;;13.87;75.47
15529;BME280;7866;52.280;9.500;2023-06-01T09:12:24;100888.84;;;14.05;75.84
15529;BME280;7866;52.280;9.500;2023-06-01T09:17:26;100881.25;;;14.09;75.82
15529;BME280;7866;52.280;9.500;2023-06-01T09:22:39;100878.34;;;13.88;76.31
15529;BME280;7866;52.280;9.500;2023-06-01T09:27:43;100870.19;;;14.27;75.27
15529;BME280;7866;52.280;9.500;2023-06-01T09:32:45;100864.56;;;14.37;74.18
15529;BME280;7866;52.280;9.500;2023-06-01T09:37:56;100867.00;;;14.23;74.57
15529;BME280;7866;52.280;9.500;2023-06-01T09:42:57;100867.16;;;14.53;74.18
15529;BME280;7866;52.280;9.500;2023-06-01T09:48:17;100862.69;;;14.37;73.79
15529;BME280;7866;52.280;9.500;2023-06-01T09:53:20;100859.34;;;14.58;73.55
15529;BME280;7866;52.280;9.500;2023-06-01T09:58:22;100852.00;;;14.67;72.65
15529;BME280;7866;52.280;9.500;2023-06-01T10:03:24;100851.66;;;14.47;73.41
15529;BME280;7866;52.280;9.500;2023-06-01T10:08:29;100849.47;;;14.50;74.05
15529;BME280;7866;52.280;9.500;2023-06-01T10:13:32;100848.81;;;14.48;74.11
15529;BME280;7866;52.280;9.500;2023-06-01T10:18:34;100849.50;;;14.80;73.95
15529;BME280;7866;52.280;9.500;2023-06-01T10:23:37;100850.84;;;15.14;72.61
15529;BME280;7866;52.280;9.500;2023-06-01T10:28:39;100844.41;;;15.15;72.43
15529;BME280;7866;52.280;9.500;2023-06-01T10:33:54;100847.22;;;15.36;71.86
15529;BME280;7866;52.280;9.500;2023-06-01T10:39:24;100839.56;;;15.40;71.98
15529;BME280;7866;52.280;9.500;2023-06-01T10:44:44;100838.19;;;15.29;72.61
15529;BME280;7866;52.280;9.500;2023-06-01T10:50:08;100833.53;;;15.23;72.54
15529;BME280;7866;52.280;9.500;2023-06-01T10:55:26;100835.38;;;15.22;72.11
15529;BME280;7866;52.280;9.500;2023-06-01T11:00:28;100831.47;;;14.95;73.28
15529;BME280;7866;52.280;9.500;2023-06-01T11:05:48;100836.78;;;15.33;72.69
15529;BME280;7866;52.280;9.500;2023-06-01T11:10:56;100838.34;;;15.42;72.40
15529;BME280;7866;52.280;9.500;2023-06-01T11:16:28;100821.13;;;15.43;72.20
15529;BME280;7866;52.280;9.500;2023-06-01T11:21:32;100822.88;;;15.51;72.15
15529;BME280;7866;52.280;9.500;2023-06-01T11:26:39;100828.44;;;15.64;71.68
15529;BME280;7866;52.280;9.500;2023-06-01T11:31:43;100832.69;;;15.08;73.30
15529;BME280;7866;52.280;9.500;2023-06-01T11:36:47;100817.34;;;15.74;71.30
15529;BME280;7866;52.280;9.500;2023-06-01T11:42:02;100812.28;;;15.86;70.43
15529;BME280;7866;52.280;9.500;2023-06-01T11:47:06;100811.59;;;15.62;70.94
15529;BME280;7866;52.280;9.500;2023-06-01T11:52:08;100808.75;;;15.34;72.23
15529;BME280;7866;52.280;9.500;2023-06-01T11:57:12;100802.50;;;15.48;72.60
15529;BME280;7866;52.280;9.500;2023-06-01T12:02:17;100810.06;;;15.23;72.95
15529;BME280;7866;52.280;9.500;2023-06-01T12:07:20;100804.03;;;15.36;72.75
15529;BME280;7866;52.280;9.500;2023-06-01T12:12:24;100805.97;;;15.79;71.68
15529;BME280;7866;52.280;9.500;2023-06-01T12:17:45;100799.25;;;15.68;71.50
15529;BME280;7866;52.280;9.500;2023-06-01T12:22:47;100791.47;;;16.01;71.10
15529;BME280;7866;52.280;9.500;2023-06-01T12:28:06;100798.16;;;16.05;70.59
15529;BME280;7866;52.280;9.500;2023-06-01T12:33:08;100793.19;;;15.66;71.58
15529;BME280;7866;52.280;9.500;2023-06-01T12:38:10;100796.66;;;15.81;72.01
15529;BME280;7866;52.280;9.500;2023-06-01T12:43:19;100798.56;;;15.66;72.11
15529;BME280;7866;52.280;9.500;2023-06-01T12:48:30;100798.06;;;15.77;71.67
15529;BME280;7866;52.280;9.500;2023-06-01T12:53:33;100794.22;;;15.86;71.58
15529;BME280;7866;52.280;9.500;2023-06-01T12:58:36;100802.19;;;15.58;72.29
15529;BME280;7866;52.280;9.500;2023-06-01T13:03:38;100805.59;;;15.31;73.38
15529;BME280;7866;52.280;9.500;2023-06-01T13:08:39;100804.56;;;15.46;72.66
15529;BME280;7866;52.280;9.500;2023-06-01T13:13:42;100807.72;;;15.35;73.40
15529;BME280;7866;52.280;9.500;2023-06-01T13:18:45;100797.00;;;15.57;73.04
15529;BME280;7866;52.280;9.500;2023-06-01T13:23:48;100796.97;;;15.71;72.48
15529;BME280;7866;52.280;9.500;2023-06-01T13:28:51;100803.81;;;15.52;72.53
15529;BME280;7866;52.280;9.500;2023-06-01T13:33:52;100796.19;;;15.41;73.52
15529;BME280;7866;52.280;9.500;2023-06-01T13:38:54;100792.66;;;15.41;73.71
15529;BME280;7866;52.280;9.500;2023-06-01T13:43:57;100780.97;;;15.55;72.72
15529;BME280;7866;52.280;9.500;2023-06-01T13:48:59;100772.69;;;15.93;71.13
15529;BME280;7866;52.280;9.500;2023-06-01T13:54:01;100777.00;;;16.65;68.64
15529;BME280;7866;52.280;9.500;2023-06-01T13:59:04;100770.59;;;16.72;68.71
15529;BME280;7866;52.280;9.500;2023-06-01T14:04:05;100763.88;;;16.96;67.69
15529;BME280;7866;52.280;9.500;2023-06-01T14:09:07;100767.66;;;16.39;68.54
15529;BME280;7866;52.280;9.500;2023-06-01T14:14:10;100766.34;;;16.91;67.83
15529;BME280;7866;52.280;9.500;2023-06-01T14:19:12;100752.06;;;16.69;66.94
15529;BME280;7866;52.280;9.500;2023-06-01T14:24:13;100755.81;;;17.10;66.42
15529;BME280;7866;52.280;9.500;2023-06-01T14:29:16;100745.81;;;17.04;65.81
15529;BME280;7866;52.280;9.500;2023-06-01T14:34:18;100736.72;;;16.77;66.42
15529;BME280;7866;52.280;9.500;2023-06-01T14:39:20;100737.47;;;16.70;66.99
15529;BME280;7866;52.280;9.500;2023-06-01T14:44:23;100738.34;;;16.43;67.36
15529;BME280;7866;52.280;9.500;2023-06-01T14:49:25;100732.91;;;17.06;66.03
15529;BME280;7866;52.280;9.500;2023-06-01T14:54:26;100736.28;;;17.95;63.59
15529;BME280;7866;52.280;9.500;2023-06-01T14:59:30;100725.03;;;17.17;64.88
15529;BME280;7866;52.280;9.500;2023-06-01T15:04:33;100725.63;;;16.99;65.35
15529;BME280;7866;52.280;9.500;2023-06-01T15:09:35;100719.03;;;17.29;63.63
15529;BME280;7866;52.280;9.500;2023-06-01T15:14:38;100711.00;;;16.94;64.35
15529;BME280;7866;52.280;9.500;2023-06-01T15:19:40;100715.69;;;17.20;64.00
15529;BME280;7866;52.280;9.500;2023-06-01T15:24:41;100708.38;;;16.72;64.93
15529;BME280;7866;52.280;9.500;2023-06-01T15:29:44;100699.31;;;16.80;64.22
15529;BME280;7866;52.280;9.500;2023-06-01T15:34:46;100700.75;;;16.83;63.92
15529;BME280;7866;52.280;9.500;2023-06-01T15:39:48;100700.47;;;16.36;64.38
15529;BME280;7866;52.280;9.500;2023-06-01T15:44:51;100703.97;;;16.65;63.78
15529;BME280;7866;52.280;9.500;2023-06-01T15:49:52;100686.25;;;16.56;63.56
15529;BME280;7866;52.280;9.500;2023-06-01T15:54:54;100687.03;;;16.49;64.32
15529;BME280;7866;52.280;9.500;2023-06-01T15:59:57;100678.94;;;16.84;63.28
15529;BME280;7866;52.280;9.500;2023-06-01T16:04:59;100681.84;;;16.89;63.05
15529;BME280;7866;52.280;9.500;2023-06-01T16:10:00;100674.81;;;17.02;62.98
15529;BME280;7866;52.280;9.500;2023-06-01T16:15:04;100665.91;;;17.14;62.56
15529;BME280;7866;52.280;9.500;2023-06-01T16:20:07;100668.19;;;17.04;62.49
15529;BME280;7866;52.280;9.500;2023-06-01T16:25:09;100668.31;;;16.89;62.97
15529;BME280;7866;52.280;9.500;2023-06-01T16:30:12;100660.06;;;16.63;62.81
15529;BME280;7866;52.280;9.500;2023-06-01T16:35:14;100651.75;;;16.64;62.97
15529;BME280;7866;52.280;9.500;2023-06-01T16:40:16;100650.19;;;16.77;63.10
15529;BME280;7866;52.280;9.500;2023-06-01T16:45:20;100642.56;;;16.59;62.96
15529;BME280;7866;52.280;9.500;2023-06-01T16:50:21;100650.72;;;16.65;63.05
15529;BME280;7866;52.280;9.500;2023-06-01T16:55:23;100641.63;;;16.38;63.62
15529;BME280;7866;52.280;9.500;2023-06-01T17:00:28;100638.94;;;16.73;63.18
15529;BME280;7866;52.280;9.500;2023-06-01T17:05:29;100638.53;;;16.76;63.03
15529;BME280;7866;52.280;9.500;2023-06-01T17:10:32;100636.53;;;16.63;62.96
15529;BME280;7866;52.280;9.500;2023-06-01T17:15:35;100640.19;;;16.36;63.44
15529;BME280;7866;52.280;9.500;2023-06-01T17:20:38;100630.53;;;16.20;63.37
15529;BME280;7866;52.280;9.500;2023-06-01T17:25:41;100632.34;;;16.13;63.49
15529;BME280;7866;52.280;9.500;2023-06-01T17:30:44;100642.84;;;16.29;63.15
15529;BME280;7866;52.280;9.500;2023-06-01T17:35:46;100637.75;;;16.13;63.45
15529;BME280;7866;52.280;9.500;2023-06-01T17:40:47;100635.91;;;15.85;63.96
15529;BME280;7866;52.280;9.500;2023-06-01T17:45:50;100628.31;;;16.02;63.83
15529;BME280;7866;52.280;9.500;2023-06-01T17:50:52;100634.75;;;16.01;63.26
15529;BME280;7866;52.280;9.500;2023-06-01T17:55:54;100631.13;;;15.87;63.59
15529;BME280;7866;52.280;9.500;2023-06-01T18:00:57;100633.13;;;15.79;64.26
15529;BME280;7866;52.280;9.500;2023-06-01T18:05:58;100634.88;;;15.22;64.84
15529;BME280;7866;52.280;9.500;2023-06-01T18:11:00;100639.06;;;15.24;65.38
15529;BME280;7866;52.280;9.500;2023-06-01T18:16:09;100635.59;;;15.09;65.50
15529;BME280;7866;52.280;9.500;2023-06-01T18:21:10;100629.22;;;15.38;64.57
15529;BME280;7866;52.280;9.500;2023-06-01T18:26:13;100630.00;;;15.11;64.98
15529;BME280;7866;52.280;9.500;2023-06-01T18:31:16;100631.28;;;14.93;64.76
15529;BME280;7866;52.280;9.500;2023-06-01T18:36:18;100637.97;;;14.97;64.82
15529;BME280;7866;52.280;9.500;2023-06-01T18:41:19;100634.22;;;14.98;64.68
15529;BME280;7866;52.280;9.500;2023-06-01T18:46:23;100642.81;;;14.87;65.27
15529;BME280;7866;52.280;9.500;2023-06-01T18:51:25;100641.38;;;14.70;65.63
15529;BME280;7866;52.280;9.500;2023-06-01T18:56:28;100653.19;;;14.69;65.73
15529;BME280;7866;52.280;9.500;2023-06-01T19:01:31;100657.72;;;14.39;66.58
15529;BME280;7866;52.280;9.500;2023-06-01T19:06:34;100653.00;;;14.56;65.96
15529;BME280;7866;52.280;9.500;2023-06-01T19:11:36;100657.34;;;14.42;66.20
15529;BME280;7866;52.280;9.500;2023-06-01T19:16:42;100652.69;;;14.36;66.12
15529;BME280;7866;52.280;9.500;2023-06-01T19:21:44;100658.09;;;14.36;66.30
15529;BME280;7866;52.280;9.500;2023-06-01T19:26:45;100644.16;;;14.32;66.40
15529;BME280;7866;52.280;9.500;2023-06-01T19:31:48;100649.63;;;14.24;66.66
15529;BME280;7866;52.280;9.500;2023-06-01T19:36:53;100654.91;;;14.02;67.58
15529;BME280;7866;52.280;9.500;2023-06-01T19:42:00;100666.03;;;13.85;68.36
15529;BME280;7866;52.280;9.500;2023-06-01T19:47:05;100651.97;;;13.74;67.82
15529;BME280;7866;52.280;9.500;2023-06-01T19:52:08;100660.56;;;13.93;67.50
15529;BME280;7866;52.280;9.500;2023-06-01T19:57:10;100672.75;;;13.66;67.69
15529;BME280;7866;52.280;9.500;2023-06-01T20:02:42;100669.59;;;13.62;68.19
15529;BME280;7866;52.280;9.500;2023-06-01T20:07:51;100659.13;;;13.44;68.39
15529;BME280;7866;52.280;9.500;2023-06-01T20:12:54;100674.00;;;13.32;68.48
15529;BME280;7866;52.280;9.500;2023-06-01T20:17:59;100678.69;;;13.38;68.08
15529;BME280;7866;52.280;9.500;2023-06-01T20:23:03;100677.25;;;13.19;68.18
15529;BME280;7866;52.280;9.500;2023-06-01T20:28:07;100686.03;;;13.44;67.78
15529;BME280;7866;52.280;9.500;2023-06-01T20:33:17;100689.44;;;13.38;67.36
15529;BME280;7866;52.280;9.500;2023-06-01T20:38:21;100685.84;;;13.23;67.48
15529;BME280;7866;52.280;9.500;2023-06-01T20:43:23;100688.06;;;13.11;68.20
15529;BME280;7866;52.280;9.500;2023-06-01T20:48:41;100698.47;;;13.14;68.32
15529;BME280;7866;52.280;9.500;2023-06-01T20:53:48;100695.59;;;12.93;68.46
15529;BME280;7866;52.280;9.500;2023-06-01T20:58:50;100700.53;;;13.04;68.08
15529;BME280;7866;52.280;9.500;2023-06-01T21:03:54;100700.59;;;12.96;67.79
15529;BME280;7866;52.280;9.500;2023-06-01T21:08:57;100696.19;;;13.03;67.09
15529;BME280;7866;52.280;9.500;2023-06-01T21:13:59;100705.09;;;12.64;67.35
15529;BME280;7866;52.280;9.500;2023-06-01T21:19:02;100691.31;;;12.67;67.03
15529;BME280;7866;52.280;9.500;2023-06-01T21:24:04;100708.97;;;12.62;67.03
15529;BME280;7866;52.280;9.500;2023-06-01T21:29:06;100714.44;;;12.37;67.51
15529;BME280;7866;52.280;9.500;2023-06-01T21:34:10;100720.63;;;12.38;66.88
15529;BME280;7866;52.280;9.500;2023-06-01T21:39:12;100710.75;;;12.30;66.81
15529;BME280;7866;52.280;9.500;2023-06-01T21:44:13;100694.66;;;12.14;66.66
15529;BME280;7866;52.280;9.500;2023-06-01T21:49:17;100697.00;;;12.25;66.33
15529;BME280;7866;52.280;9.500;2023-06-01T21:54:21;100700.59;;;12.48;66.31
15529;BME280;7866;52.280;9.500;2023-06-01T21:59:23;100701.84;;;12.38;65.91
15529;BME280;7866;52.280;9.500;2023-06-01T22:04:26;100698.69;;;12.10;66.88
15529;BME280;7866;52.280;9.500;2023-06-01T22:09:27;100698.19;;;12.06;67.06
15529;BME280;7866;52.280;9.500;2023-06-01T22:14:29;100698.50;;;12.19;66.20
15529;BME280;7866;52.280;9.500;2023-06-01T22:19:32;100695.84;;;12.11;66.47
15529;BME280;7866;52.280;9.500;2023-06-01T22:24:34;100699.03;;;12.06;66.06
15529;BME280;7866;52.280;9.500;2023-06-01T22:29:35;100704.41;;;11.90;66.57
15529;BME280;7866;52.280;9.500;2023-06-01T22:34:39;100703.72;;;11.96;65.96
15529;BME280;7866;52.280;9.500;2023-06-01T22:39:40;100705.44;;;11.97;66.46
15529;BME280;7866;52.280;9.500;2023-06-01T22:44:42;100699.06;;;11.90;66.50
15529;BME280;7866;52.280;9.500;2023-06-01T22:49:46;100703.56;;;11.81;66.41
15529;BME280;7866;52.280;9.500;2023-06-01T22:54:47;100711.78;;;12.04;66.17
15529;BME280;7866;52.280;9.500;2023-06-01T22:59:49;100704.75;;;11.87;66.22
15529;BME280;7866;52.280;9.500;2023-06-01T23:04:53;100701.88;;;11.89;66.91
15529;BME280;7866;52.280;9.500;2023-06-01T23:09:54;100705.06;;;11.92;66.32
15529;BME280;7866;52.280;9.500;2023-06-01T23:14:57;100710.13;;;11.95;66.45
15529;BME280;7866;52.280;9.500;2023-06-01T23:20:05;100710.44;;;11.92;66.30
15529;BME280;7866;52.280;9.500;2023-06-01T23:25:09;100705.25;;;11.91;66.64
15529;BME280;7866;52.280;9.500;2023-06-01T23:30:11;100709.28;;;11.87;67.02
15529;BME280;7866;52.280;9.500;2023-06-01T23:35:15;100708.78;;;11.83;66.33
15529;BME280;7866;52.280;9.500;2023-06-01T23:40:16;100712.78;;;11.71;66.53
15529;BME280;7866;52.280;9.500;2023-06-01T23:45:18;100707.41;;;11.71;66.54
15529;BME280;7866;52.280;9.500;2023-06-01T23:50:22;100707.91;;;11.66;66.73
15529;BME280;7866;52.280;9.500;2023-06-01T23:55:23;100705.38;;;11.65;67.37
